Ander, Texas
Current Conditions -  °F | °C
As of 8:55 PM on Sunday 21 Dec 2014 (Local Time) from KBEA Reporting Station
Overcast Overcast  
Wind Chill: 58°   Ceiling: 2800
Heat Index: 58°   Visibility: 10mi
Dew Point: 57°   Wind: 7mph
Humidity: 95%   Direction: 150°SSE
Pressure: 29.9"   Gusts: NA
Location:  28.6563°N, 97.4287°W
Report Text: KBEA 220255Z AUTO 15006KT 10SM OVC028 15/14 A2990 RMK AO2 T01450137
Loading
Personal Weather Stations






























Interactive Weather Map New forecast layout! Learn more

10-Day Weather Forecast

Advertisements
Track Severe Weather on mobile